sensor_id;sensor_type;location;lat;lon;timestamp;P1;durP1;ratioP1;P2;durP2;ratioP2
75207;SDS011;63795;55.684;37.864;2023-04-23T00:00:58;26.88;;;7.35;;
75207;SDS011;63795;55.684;37.864;2023-04-23T00:06:04;22.80;;;5.28;;
75207;SDS011;63795;55.684;37.864;2023-04-23T00:11:07;22.25;;;6.25;;
75207;SDS011;63795;55.684;37.864;2023-04-23T00:16:09;29.33;;;8.07;;
75207;SDS011;63795;55.684;37.864;2023-04-23T00:21:10;23.42;;;7.43;;
75207;SDS011;63795;55.684;37.864;2023-04-23T00:26:11;22.25;;;6.78;;
75207;SDS011;63795;55.684;37.864;2023-04-23T00:31:11;22.52;;;7.25;;
75207;SDS011;63795;55.684;37.864;2023-04-23T00:36:12;25.00;;;7.43;;
75207;SDS011;63795;55.684;37.864;2023-04-23T00:41:12;21.35;;;7.40;;
75207;SDS011;63795;55.684;37.864;2023-04-23T00:46:14;18.48;;;6.78;;
75207;SDS011;63795;55.684;37.864;2023-04-23T00:51:15;20.08;;;6.03;;
75207;SDS011;63795;55.684;37.864;2023-04-23T00:56:16;31.77;;;6.82;;
75207;SDS011;63795;55.684;37.864;2023-04-23T01:01:17;17.48;;;6.93;;
75207;SDS011;63795;55.684;37.864;2023-04-23T01:06:19;16.17;;;5.65;;
75207;SDS011;63795;55.684;37.864;2023-04-23T01:11:20;15.65;;;6.25;;
75207;SDS011;63795;55.684;37.864;2023-04-23T01:16:21;20.17;;;7.05;;
75207;SDS011;63795;55.684;37.864;2023-04-23T01:21:22;19.48;;;4.85;;
75207;SDS011;63795;55.684;37.864;2023-04-23T01:26:23;21.13;;;5.32;;
75207;SDS011;63795;55.684;37.864;2023-04-23T01:31:24;14.13;;;6.00;;
75207;SDS011;63795;55.684;37.864;2023-04-23T01:36:25;17.65;;;4.22;;
75207;SDS011;63795;55.684;37.864;2023-04-23T01:41:26;15.52;;;5.40;;
75207;SDS011;63795;55.684;37.864;2023-04-23T01:46:27;24.83;;;7.65;;
75207;SDS011;63795;55.684;37.864;2023-04-23T01:51:28;13.18;;;4.75;;
75207;SDS011;63795;55.684;37.864;2023-04-23T01:56:29;18.95;;;4.90;;
75207;SDS011;63795;55.684;37.864;2023-04-23T02:01:45;19.92;;;7.18;;
75207;SDS011;63795;55.684;37.864;2023-04-23T02:06:47;22.45;;;8.13;;
75207;SDS011;63795;55.684;37.864;2023-04-23T02:11:49;19.95;;;7.93;;
75207;SDS011;63795;55.684;37.864;2023-04-23T02:16:50;25.63;;;8.23;;
75207;SDS011;63795;55.684;37.864;2023-04-23T02:21:50;18.93;;;7.40;;
75207;SDS011;63795;55.684;37.864;2023-04-23T02:26:51;23.00;;;6.68;;
75207;SDS011;63795;55.684;37.864;2023-04-23T02:31:51;26.13;;;8.65;;
75207;SDS011;63795;55.684;37.864;2023-04-23T02:36:52;20.83;;;6.43;;
75207;SDS011;63795;55.684;37.864;2023-04-23T02:41:52;32.30;;;9.00;;
75207;SDS011;63795;55.684;37.864;2023-04-23T02:46:53;34.40;;;8.63;;
75207;SDS011;63795;55.684;37.864;2023-04-23T02:51:53;30.50;;;11.87;;
75207;SDS011;63795;55.684;37.864;2023-04-23T02:56:54;24.35;;;9.10;;
75207;SDS011;63795;55.684;37.864;2023-04-23T03:01:56;26.27;;;11.38;;
75207;SDS011;63795;55.684;37.864;2023-04-23T03:06:56;25.77;;;10.27;;
75207;SDS011;63795;55.684;37.864;2023-04-23T03:11:57;29.30;;;11.32;;
75207;SDS011;63795;55.684;37.864;2023-04-23T03:16:58;31.77;;;10.38;;
75207;SDS011;63795;55.684;37.864;2023-04-23T03:21:58;30.90;;;10.38;;
75207;SDS011;63795;55.684;37.864;2023-04-23T03:27:02;32.53;;;11.30;;
75207;SDS011;63795;55.684;37.864;2023-04-23T03:32:02;30.92;;;12.18;;
75207;SDS011;63795;55.684;37.864;2023-04-23T03:37:03;29.80;;;9.68;;
75207;SDS011;63795;55.684;37.864;2023-04-23T03:42:03;30.97;;;9.27;;
75207;SDS011;63795;55.684;37.864;2023-04-23T03:47:04;26.55;;;9.68;;
75207;SDS011;63795;55.684;37.864;2023-04-23T03:52:04;27.92;;;10.55;;
75207;SDS011;63795;55.684;37.864;2023-04-23T03:57:05;26.90;;;10.52;;
75207;SDS011;63795;55.684;37.864;2023-04-23T04:02:06;29.50;;;9.18;;
75207;SDS011;63795;55.684;37.864;2023-04-23T04:07:06;34.35;;;12.40;;
75207;SDS011;63795;55.684;37.864;2023-04-23T04:12:11;27.55;;;9.70;;
75207;SDS011;63795;55.684;37.864;2023-04-23T04:17:11;36.03;;;10.10;;
75207;SDS011;63795;55.684;37.864;2023-04-23T04:22:14;32.63;;;10.18;;
75207;SDS011;63795;55.684;37.864;2023-04-23T04:27:15;25.40;;;10.05;;
75207;SDS011;63795;55.684;37.864;2023-04-23T04:32:17;37.58;;;9.63;;
75207;SDS011;63795;55.684;37.864;2023-04-23T04:37:18;22.30;;;8.30;;
75207;SDS011;63795;55.684;37.864;2023-04-23T04:42:20;25.55;;;9.13;;
75207;SDS011;63795;55.684;37.864;2023-04-23T04:47:20;20.73;;;9.30;;
75207;SDS011;63795;55.684;37.864;2023-04-23T04:52:21;15.82;;;8.07;;
75207;SDS011;63795;55.684;37.864;2023-04-23T04:57:21;16.25;;;7.07;;
75207;SDS011;63795;55.684;37.864;2023-04-23T05:02:22;7.13;;;2.70;;
75207;SDS011;63795;55.684;37.864;2023-04-23T05:07:23;9.80;;;7.85;;
75207;SDS011;63795;55.684;37.864;2023-04-23T05:12:23;9.45;;;1.75;;
75207;SDS011;63795;55.684;37.864;2023-04-23T05:17:23;7.60;;;2.88;;
75207;SDS011;63795;55.684;37.864;2023-04-23T05:22:25;12.05;;;4.15;;
75207;SDS011;63795;55.684;37.864;2023-04-23T05:27:25;5.70;;;1.95;;
75207;SDS011;63795;55.684;37.864;2023-04-23T05:32:26;6.55;;;2.08;;
75207;SDS011;63795;55.684;37.864;2023-04-23T05:37:27;6.60;;;2.22;;
75207;SDS011;63795;55.684;37.864;2023-04-23T05:42:28;7.57;;;2.10;;
75207;SDS011;63795;55.684;37.864;2023-04-23T05:47:28;9.73;;;2.08;;
75207;SDS011;63795;55.684;37.864;2023-04-23T05:52:29;17.65;;;2.50;;
75207;SDS011;63795;55.684;37.864;2023-04-23T05:57:32;5.57;;;1.92;;
75207;SDS011;63795;55.684;37.864;2023-04-23T06:02:32;8.02;;;2.88;;
75207;SDS011;63795;55.684;37.864;2023-04-23T06:07:33;8.07;;;2.30;;
75207;SDS011;63795;55.684;37.864;2023-04-23T06:12:35;8.18;;;3.17;;
75207;SDS011;63795;55.684;37.864;2023-04-23T06:17:38;7.00;;;3.17;;
75207;SDS011;63795;55.684;37.864;2023-04-23T06:22:38;9.38;;;4.93;;
75207;SDS011;63795;55.684;37.864;2023-04-23T06:27:39;10.13;;;5.50;;
75207;SDS011;63795;55.684;37.864;2023-04-23T06:32:39;6.97;;;1.70;;
75207;SDS011;63795;55.684;37.864;2023-04-23T06:37:40;8.55;;;2.00;;
75207;SDS011;63795;55.684;37.864;2023-04-23T06:42:40;13.90;;;2.78;;
75207;SDS011;63795;55.684;37.864;2023-04-23T06:47:41;8.45;;;2.35;;
75207;SDS011;63795;55.684;37.864;2023-04-23T06:52:42;7.03;;;3.17;;
75207;SDS011;63795;55.684;37.864;2023-04-23T06:57:42;12.05;;;3.40;;
75207;SDS011;63795;55.684;37.864;2023-04-23T07:02:43;9.13;;;3.42;;
75207;SDS011;63795;55.684;37.864;2023-04-23T07:07:43;8.00;;;3.35;;
75207;SDS011;63795;55.684;37.864;2023-04-23T07:12:44;4.03;;;1.75;;
75207;SDS011;63795;55.684;37.864;2023-04-23T07:17:44;3.70;;;0.93;;
75207;SDS011;63795;55.684;37.864;2023-04-23T07:22:45;2.65;;;0.30;;
75207;SDS011;63795;55.684;37.864;2023-04-23T07:27:46;3.95;;;2.35;;
75207;SDS011;63795;55.684;37.864;2023-04-23T07:32:47;6.25;;;1.48;;
75207;SDS011;63795;55.684;37.864;2023-04-23T07:37:47;6.15;;;2.15;;
75207;SDS011;63795;55.684;37.864;2023-04-23T07:42:52;2.65;;;0.65;;
75207;SDS011;63795;55.684;37.864;2023-04-23T07:47:53;3.17;;;0.67;;
75207;SDS011;63795;55.684;37.864;2023-04-23T07:52:53;2.15;;;0.95;;
75207;SDS011;63795;55.684;37.864;2023-04-23T07:57:54;2.25;;;1.05;;
75207;SDS011;63795;55.684;37.864;2023-04-23T08:02:54;2.42;;;1.05;;
75207;SDS011;63795;55.684;37.864;2023-04-23T08:07:55;3.58;;;0.98;;
75207;SDS011;63795;55.684;37.864;2023-04-23T08:12:55;3.35;;;1.65;;
75207;SDS011;63795;55.684;37.864;2023-04-23T08:17:56;2.67;;;1.27;;
75207;SDS011;63795;55.684;37.864;2023-04-23T08:22:56;2.78;;;1.38;;
75207;SDS011;63795;55.684;37.864;2023-04-23T08:27:57;4.68;;;3.22;;
75207;SDS011;63795;55.684;37.864;2023-04-23T08:32:58;7.95;;;2.22;;
75207;SDS011;63795;55.684;37.864;2023-04-23T08:37:58;3.65;;;0.98;;
75207;SDS011;63795;55.684;37.864;2023-04-23T08:43:02;4.87;;;1.50;;
75207;SDS011;63795;55.684;37.864;2023-04-23T08:48:09;3.10;;;0.65;;
75207;SDS011;63795;55.684;37.864;2023-04-23T08:53:10;1.63;;;0.57;;
75207;SDS011;63795;55.684;37.864;2023-04-23T08:58:18;6.97;;;1.30;;
75207;SDS011;63795;55.684;37.864;2023-04-23T09:03:20;3.42;;;1.25;;
75207;SDS011;63795;55.684;37.864;2023-04-23T09:08:23;2.80;;;0.82;;
75207;SDS011;63795;55.684;37.864;2023-04-23T09:13:23;2.35;;;0.80;;
75207;SDS011;63795;55.684;37.864;2023-04-23T09:18:24;2.85;;;1.23;;
75207;SDS011;63795;55.684;37.864;2023-04-23T09:23:25;5.05;;;1.70;;
75207;SDS011;63795;55.684;37.864;2023-04-23T09:28:35;3.38;;;1.45;;
75207;SDS011;63795;55.684;37.864;2023-04-23T09:33:36;3.70;;;0.75;;
75207;SDS011;63795;55.684;37.864;2023-04-23T09:38:38;5.07;;;1.05;;
75207;SDS011;63795;55.684;37.864;2023-04-23T09:43:40;5.97;;;0.85;;
75207;SDS011;63795;55.684;37.864;2023-04-23T09:48:41;4.90;;;2.13;;
75207;SDS011;63795;55.684;37.864;2023-04-23T09:53:42;3.35;;;1.05;;
75207;SDS011;63795;55.684;37.864;2023-04-23T09:58:44;5.53;;;0.80;;
75207;SDS011;63795;55.684;37.864;2023-04-23T10:03:45;3.33;;;1.55;;
75207;SDS011;63795;55.684;37.864;2023-04-23T10:08:52;3.17;;;1.92;;
75207;SDS011;63795;55.684;37.864;2023-04-23T10:13:53;6.13;;;1.90;;
75207;SDS011;63795;55.684;37.864;2023-04-23T10:23:56;4.30;;;1.45;;
75207;SDS011;63795;55.684;37.864;2023-04-23T10:29:01;2.78;;;0.52;;
75207;SDS011;63795;55.684;37.864;2023-04-23T10:34:04;5.05;;;1.55;;
75207;SDS011;63795;55.684;37.864;2023-04-23T10:39:05;4.38;;;1.38;;
75207;SDS011;63795;55.684;37.864;2023-04-23T10:44:11;2.65;;;0.65;;
75207;SDS011;63795;55.684;37.864;2023-04-23T10:49:14;3.92;;;1.10;;
75207;SDS011;63795;55.684;37.864;2023-04-23T10:54:15;1.67;;;1.33;;
75207;SDS011;63795;55.684;37.864;2023-04-23T10:59:18;3.22;;;1.45;;
75207;SDS011;63795;55.684;37.864;2023-04-23T11:04:23;4.65;;;1.33;;
75207;SDS011;63795;55.684;37.864;2023-04-23T11:09:28;6.00;;;1.52;;
75207;SDS011;63795;55.684;37.864;2023-04-23T11:25:09;6.38;;;1.85;;
75207;SDS011;63795;55.684;37.864;2023-04-23T11:30:14;2.85;;;2.33;;
75207;SDS011;63795;55.684;37.864;2023-04-23T11:35:21;3.85;;;1.02;;
75207;SDS011;63795;55.684;37.864;2023-04-23T11:40:22;2.97;;;1.45;;
75207;SDS011;63795;55.684;37.864;2023-04-23T11:45:24;2.88;;;1.45;;
75207;SDS011;63795;55.684;37.864;2023-04-23T11:50:26;3.08;;;1.73;;
75207;SDS011;63795;55.684;37.864;2023-04-23T11:55:28;6.95;;;1.90;;
75207;SDS011;63795;55.684;37.864;2023-04-23T12:00:29;3.85;;;0.85;;
75207;SDS011;63795;55.684;37.864;2023-04-23T12:05:33;3.38;;;2.17;;
75207;SDS011;63795;55.684;37.864;2023-04-23T12:10:46;3.08;;;1.10;;
75207;SDS011;63795;55.684;37.864;2023-04-23T12:15:51;3.78;;;1.30;;
75207;SDS011;63795;55.684;37.864;2023-04-23T12:21:04;4.28;;;1.10;;
75207;SDS011;63795;55.684;37.864;2023-04-23T12:26:09;2.22;;;1.40;;
75207;SDS011;63795;55.684;37.864;2023-04-23T12:31:17;6.03;;;1.75;;
75207;SDS011;63795;55.684;37.864;2023-04-23T12:36:28;1.80;;;1.05;;
75207;SDS011;63795;55.684;37.864;2023-04-23T12:41:29;4.28;;;0.82;;
75207;SDS011;63795;55.684;37.864;2023-04-23T12:46:30;2.22;;;0.88;;
75207;SDS011;63795;55.684;37.864;2023-04-23T12:51:30;4.78;;;1.65;;
75207;SDS011;63795;55.684;37.864;2023-04-23T12:56:31;6.25;;;1.23;;
75207;SDS011;63795;55.684;37.864;2023-04-23T13:01:32;2.75;;;1.10;;
75207;SDS011;63795;55.684;37.864;2023-04-23T13:06:32;5.35;;;0.77;;
75207;SDS011;63795;55.684;37.864;2023-04-23T13:11:33;2.10;;;1.05;;
75207;SDS011;63795;55.684;37.864;2023-04-23T13:16:34;8.50;;;0.90;;
75207;SDS011;63795;55.684;37.864;2023-04-23T13:26:36;4.53;;;1.37;;
75207;SDS011;63795;55.684;37.864;2023-04-23T13:31:36;3.38;;;1.20;;
75207;SDS011;63795;55.684;37.864;2023-04-23T13:36:37;2.08;;;0.50;;
75207;SDS011;63795;55.684;37.864;2023-04-23T13:41:40;2.58;;;0.90;;
75207;SDS011;63795;55.684;37.864;2023-04-23T13:46:41;8.57;;;1.15;;
75207;SDS011;63795;55.684;37.864;2023-04-23T13:51:41;3.05;;;1.23;;
75207;SDS011;63795;55.684;37.864;2023-04-23T13:56:42;2.73;;;0.87;;
75207;SDS011;63795;55.684;37.864;2023-04-23T14:01:42;4.65;;;1.27;;
75207;SDS011;63795;55.684;37.864;2023-04-23T14:06:43;1.88;;;0.57;;
75207;SDS011;63795;55.684;37.864;2023-04-23T14:11:43;6.50;;;1.50;;
75207;SDS011;63795;55.684;37.864;2023-04-23T14:16:44;5.28;;;0.43;;
75207;SDS011;63795;55.684;37.864;2023-04-23T14:21:44;5.18;;;1.52;;
75207;SDS011;63795;55.684;37.864;2023-04-23T14:26:45;3.88;;;1.00;;
75207;SDS011;63795;55.684;37.864;2023-04-23T14:31:47;3.80;;;2.05;;
75207;SDS011;63795;55.684;37.864;2023-04-23T14:36:48;7.07;;;0.30;;
75207;SDS011;63795;55.684;37.864;2023-04-23T14:41:48;3.67;;;1.35;;
75207;SDS011;63795;55.684;37.864;2023-04-23T14:46:49;5.93;;;2.13;;
75207;SDS011;63795;55.684;37.864;2023-04-23T14:51:51;4.13;;;0.82;;
75207;SDS011;63795;55.684;37.864;2023-04-23T14:56:53;6.07;;;1.17;;
75207;SDS011;63795;55.684;37.864;2023-04-23T15:01:53;7.80;;;1.23;;
75207;SDS011;63795;55.684;37.864;2023-04-23T15:06:55;3.90;;;0.90;;
75207;SDS011;63795;55.684;37.864;2023-04-23T15:11:56;18.60;;;8.97;;
75207;SDS011;63795;55.684;37.864;2023-04-23T15:16:56;22.58;;;10.80;;
75207;SDS011;63795;55.684;37.864;2023-04-23T15:21:57;6.78;;;1.60;;
75207;SDS011;63795;55.684;37.864;2023-04-23T15:26:57;7.13;;;0.70;;
75207;SDS011;63795;55.684;37.864;2023-04-23T15:31:58;5.20;;;1.65;;
75207;SDS011;63795;55.684;37.864;2023-04-23T15:36:59;9.02;;;1.10;;
75207;SDS011;63795;55.684;37.864;2023-04-23T15:41:59;2.75;;;0.20;;
75207;SDS011;63795;55.684;37.864;2023-04-23T15:47:00;3.15;;;0.73;;
75207;SDS011;63795;55.684;37.864;2023-04-23T15:52:02;9.88;;;1.13;;
75207;SDS011;63795;55.684;37.864;2023-04-23T15:57:03;6.38;;;1.17;;
75207;SDS011;63795;55.684;37.864;2023-04-23T16:02:03;3.88;;;0.85;;
75207;SDS011;63795;55.684;37.864;2023-04-23T16:07:04;4.78;;;0.90;;
75207;SDS011;63795;55.684;37.864;2023-04-23T16:12:05;5.22;;;1.50;;
75207;SDS011;63795;55.684;37.864;2023-04-23T16:17:06;3.53;;;0.43;;
75207;SDS011;63795;55.684;37.864;2023-04-23T16:22:06;5.43;;;0.60;;
75207;SDS011;63795;55.684;37.864;2023-04-23T16:27:07;4.45;;;1.52;;
75207;SDS011;63795;55.684;37.864;2023-04-23T16:32:09;4.55;;;1.33;;
75207;SDS011;63795;55.684;37.864;2023-04-23T16:37:10;6.22;;;0.57;;
75207;SDS011;63795;55.684;37.864;2023-04-23T16:42:17;7.10;;;1.30;;
75207;SDS011;63795;55.684;37.864;2023-04-23T16:47:21;12.70;;;3.03;;
75207;SDS011;63795;55.684;37.864;2023-04-23T16:52:28;13.02;;;1.25;;
75207;SDS011;63795;55.684;37.864;2023-04-23T16:57:28;8.18;;;0.73;;
75207;SDS011;63795;55.684;37.864;2023-04-23T17:02:29;6.28;;;1.00;;
75207;SDS011;63795;55.684;37.864;2023-04-23T17:07:29;5.50;;;1.75;;
75207;SDS011;63795;55.684;37.864;2023-04-23T17:12:30;6.13;;;1.13;;
75207;SDS011;63795;55.684;37.864;2023-04-23T17:17:30;2.47;;;0.57;;
75207;SDS011;63795;55.684;37.864;2023-04-23T17:27:33;4.95;;;1.17;;
75207;SDS011;63795;55.684;37.864;2023-04-23T17:32:34;6.38;;;1.55;;
75207;SDS011;63795;55.684;37.864;2023-04-23T17:37:34;9.65;;;1.55;;
75207;SDS011;63795;55.684;37.864;2023-04-23T17:42:35;5.83;;;1.23;;
75207;SDS011;63795;55.684;37.864;2023-04-23T17:47:35;6.82;;;1.27;;
75207;SDS011;63795;55.684;37.864;2023-04-23T17:52:37;6.57;;;1.67;;
75207;SDS011;63795;55.684;37.864;2023-04-23T17:57:40;7.80;;;1.02;;
75207;SDS011;63795;55.684;37.864;2023-04-23T18:02:40;6.65;;;1.35;;
75207;SDS011;63795;55.684;37.864;2023-04-23T18:07:41;14.82;;;5.93;;
75207;SDS011;63795;55.684;37.864;2023-04-23T18:12:42;8.88;;;2.92;;
75207;SDS011;63795;55.684;37.864;2023-04-23T18:17:43;14.57;;;5.53;;
75207;SDS011;63795;55.684;37.864;2023-04-23T18:22:44;8.98;;;1.50;;
75207;SDS011;63795;55.684;37.864;2023-04-23T18:27:44;5.97;;;1.45;;
75207;SDS011;63795;55.684;37.864;2023-04-23T18:32:46;13.32;;;3.53;;
75207;SDS011;63795;55.684;37.864;2023-04-23T18:37:58;11.95;;;1.55;;
75207;SDS011;63795;55.684;37.864;2023-04-23T18:43:01;17.95;;;6.50;;
75207;SDS011;63795;55.684;37.864;2023-04-23T18:48:02;20.67;;;7.85;;
75207;SDS011;63795;55.684;37.864;2023-04-23T18:53:18;12.77;;;4.88;;
75207;SDS011;63795;55.684;37.864;2023-04-23T18:58:18;17.40;;;7.13;;
75207;SDS011;63795;55.684;37.864;2023-04-23T19:03:19;12.47;;;4.37;;
75207;SDS011;63795;55.684;37.864;2023-04-23T19:08:20;17.23;;;4.53;;
75207;SDS011;63795;55.684;37.864;2023-04-23T19:13:23;13.25;;;4.70;;
75207;SDS011;63795;55.684;37.864;2023-04-23T19:18:23;21.10;;;7.35;;
75207;SDS011;63795;55.684;37.864;2023-04-23T19:23:24;13.93;;;6.18;;
75207;SDS011;63795;55.684;37.864;2023-04-23T19:28:24;19.23;;;3.17;;
75207;SDS011;63795;55.684;37.864;2023-04-23T19:33:25;18.55;;;3.85;;
75207;SDS011;63795;55.684;37.864;2023-04-23T19:38:26;22.95;;;5.57;;
75207;SDS011;63795;55.684;37.864;2023-04-23T19:43:26;24.08;;;4.97;;
75207;SDS011;63795;55.684;37.864;2023-04-23T19:48:27;19.42;;;5.93;;
75207;SDS011;63795;55.684;37.864;2023-04-23T19:53:27;23.50;;;5.78;;
75207;SDS011;63795;55.684;37.864;2023-04-23T19:58:28;26.58;;;5.43;;
75207;SDS011;63795;55.684;37.864;2023-04-23T20:03:28;28.13;;;8.43;;
75207;SDS011;63795;55.684;37.864;2023-04-23T20:08:29;31.02;;;10.18;;
75207;SDS011;63795;55.684;37.864;2023-04-23T20:13:40;22.63;;;8.63;;
75207;SDS011;63795;55.684;37.864;2023-04-23T20:18:42;31.08;;;9.75;;
75207;SDS011;63795;55.684;37.864;2023-04-23T20:23:42;32.03;;;10.32;;
75207;SDS011;63795;55.684;37.864;2023-04-23T20:28:42;28.30;;;9.37;;
75207;SDS011;63795;55.684;37.864;2023-04-23T20:33:45;33.63;;;11.68;;
75207;SDS011;63795;55.684;37.864;2023-04-23T20:38:45;37.40;;;13.83;;
75207;SDS011;63795;55.684;37.864;2023-04-23T20:43:46;35.78;;;11.07;;
75207;SDS011;63795;55.684;37.864;2023-04-23T20:48:46;42.63;;;12.15;;
75207;SDS011;63795;55.684;37.864;2023-04-23T20:53:57;44.00;;;14.15;;
75207;SDS011;63795;55.684;37.864;2023-04-23T20:58:58;43.20;;;14.07;;
75207;SDS011;63795;55.684;37.864;2023-04-23T21:03:58;43.03;;;11.45;;
75207;SDS011;63795;55.684;37.864;2023-04-23T21:08:59;33.55;;;13.20;;
75207;SDS011;63795;55.684;37.864;2023-04-23T21:14:00;48.67;;;13.00;;
75207;SDS011;63795;55.684;37.864;2023-04-23T21:19:01;39.20;;;14.63;;
75207;SDS011;63795;55.684;37.864;2023-04-23T21:24:02;48.17;;;14.48;;
75207;SDS011;63795;55.684;37.864;2023-04-23T21:29:02;36.58;;;11.77;;
75207;SDS011;63795;55.684;37.864;2023-04-23T21:34:03;39.28;;;14.15;;
75207;SDS011;63795;55.684;37.864;2023-04-23T21:39:03;43.42;;;14.60;;
75207;SDS011;63795;55.684;37.864;2023-04-23T21:44:04;42.38;;;12.52;;
75207;SDS011;63795;55.684;37.864;2023-04-23T21:49:05;36.63;;;11.68;;
75207;SDS011;63795;55.684;37.864;2023-04-23T21:54:05;26.02;;;9.13;;
75207;SDS011;63795;55.684;37.864;2023-04-23T21:59:06;40.88;;;10.85;;
75207;SDS011;63795;55.684;37.864;2023-04-23T22:04:06;27.48;;;12.27;;
75207;SDS011;63795;55.684;37.864;2023-04-23T22:09:07;42.35;;;12.25;;
75207;SDS011;63795;55.684;37.864;2023-04-23T22:14:08;34.53;;;9.43;;
75207;SDS011;63795;55.684;37.864;2023-04-23T22:19:08;39.03;;;11.43;;
75207;SDS011;63795;55.684;37.864;2023-04-23T22:24:09;40.10;;;9.40;;
75207;SDS011;63795;55.684;37.864;2023-04-23T22:29:09;35.22;;;11.02;;
75207;SDS011;63795;55.684;37.864;2023-04-23T22:34:10;26.42;;;10.30;;
75207;SDS011;63795;55.684;37.864;2023-04-23T22:39:10;22.48;;;8.13;;
75207;SDS011;63795;55.684;37.864;2023-04-23T22:44:11;22.90;;;9.52;;
75207;SDS011;63795;55.684;37.864;2023-04-23T22:49:12;29.07;;;8.90;;
75207;SDS011;63795;55.684;37.864;2023-04-23T22:54:13;29.83;;;9.32;;
75207;SDS011;63795;55.684;37.864;2023-04-23T22:59:13;20.70;;;8.30;;
75207;SDS011;63795;55.684;37.864;2023-04-23T23:04:14;26.67;;;8.23;;
75207;SDS011;63795;55.684;37.864;2023-04-23T23:09:15;28.75;;;7.70;;
75207;SDS011;63795;55.684;37.864;2023-04-23T23:14:15;23.10;;;7.03;;
75207;SDS011;63795;55.684;37.864;2023-04-23T23:19:16;23.92;;;7.95;;
75207;SDS011;63795;55.684;37.864;2023-04-23T23:24:16;26.95;;;7.78;;
75207;SDS011;63795;55.684;37.864;2023-04-23T23:29:18;24.85;;;8.68;;
75207;SDS011;63795;55.684;37.864;2023-04-23T23:34:18;22.25;;;9.25;;
75207;SDS011;63795;55.684;37.864;2023-04-23T23:39:19;22.25;;;7.47;;
75207;SDS011;63795;55.684;37.864;2023-04-23T23:44:19;23.52;;;6.97;;
75207;SDS011;63795;55.684;37.864;2023-04-23T23:49:20;25.70;;;7.25;;
75207;SDS011;63795;55.684;37.864;2023-04-23T23:54:20;26.42;;;9.60;;
75207;SDS011;63795;55.684;37.864;2023-04-23T23:59:21;28.15;;;7.78;;
